createdAt,value
2023-02-27T00:02:15.545Z,17.94
2023-02-27T00:06:15.632Z,17.89
2023-02-27T00:10:15.732Z,17.82
2023-02-27T00:14:15.858Z,17.82
2023-02-27T00:18:15.936Z,17.88
2023-02-27T00:22:16.017Z,17.85
2023-02-27T00:26:16.106Z,17.84
2023-02-27T00:30:16.218Z,17.84
2023-02-27T00:34:16.329Z,17.87
2023-02-27T00:38:16.403Z,17.78
2023-02-27T00:42:16.532Z,17.73
2023-02-27T00:46:17.655Z,17.74
2023-02-27T00:50:16.818Z,17.80
2023-02-27T00:54:16.925Z,17.76
2023-02-27T00:58:17.140Z,17.74
2023-02-27T01:02:17.292Z,17.77
2023-02-27T01:06:17.345Z,17.78
2023-02-27T01:10:17.461Z,17.68
2023-02-27T01:14:17.658Z,17.67
2023-02-27T01:18:17.811Z,17.67
2023-02-27T01:22:17.965Z,17.68
2023-02-27T01:26:18.147Z,17.64
2023-02-27T01:30:18.385Z,17.64
2023-02-27T01:34:18.546Z,17.63
2023-02-27T01:38:18.743Z,17.58
2023-02-27T01:42:18.971Z,17.61
2023-02-27T01:46:19.170Z,17.54
2023-02-27T01:50:19.355Z,17.57
2023-02-27T01:54:19.570Z,17.54
2023-02-27T01:58:19.524Z,17.58
2023-02-27T02:02:19.537Z,17.50
2023-02-27T02:06:19.443Z,17.47
2023-02-27T02:10:19.393Z,17.43
2023-02-27T02:14:19.353Z,17.41
2023-02-27T02:18:19.336Z,17.44
2023-02-27T02:22:19.285Z,17.46
2023-02-27T02:26:19.227Z,17.51
2023-02-27T02:30:19.232Z,17.53
2023-02-27T02:34:19.186Z,17.54
2023-02-27T02:38:19.305Z,17.56
2023-02-27T02:42:19.548Z,17.60
2023-02-27T02:46:19.811Z,17.57
2023-02-27T02:50:19.996Z,17.53
2023-02-27T02:54:20.226Z,17.53
2023-02-27T02:58:20.409Z,17.54
2023-02-27T03:02:20.633Z,17.44
2023-02-27T03:06:20.591Z,17.43
2023-02-27T03:10:20.582Z,17.36
2023-02-27T03:14:20.527Z,17.34
2023-02-27T03:18:20.573Z,17.36
2023-02-27T03:22:20.473Z,17.33
2023-02-27T03:26:20.382Z,17.31
2023-02-27T03:30:20.399Z,17.26
2023-02-27T03:34:20.303Z,17.27
2023-02-27T03:38:20.305Z,17.26
2023-02-27T03:42:20.305Z,17.22
2023-02-27T03:46:20.370Z,17.16
2023-02-27T03:50:20.441Z,17.13
2023-02-27T03:54:20.579Z,17.10
2023-02-27T03:58:20.598Z,17.07
2023-02-27T04:02:20.672Z,17.03
2023-02-27T04:06:20.666Z,17.01
2023-02-27T04:10:20.649Z,17.02
2023-02-27T04:14:20.658Z,17.15
2023-02-27T04:18:20.782Z,17.17
2023-02-27T04:22:20.869Z,17.23
2023-02-27T04:26:21.007Z,17.27
2023-02-27T04:30:21.141Z,17.31
2023-02-27T04:34:21.262Z,17.27
2023-02-27T04:38:21.425Z,17.31
2023-02-27T04:42:21.626Z,17.26
2023-02-27T04:46:21.814Z,17.30
2023-02-27T04:50:22.006Z,17.31
2023-02-27T04:54:21.988Z,17.33
2023-02-27T04:58:23.799Z,17.30
2023-02-27T05:02:21.946Z,17.26
2023-02-27T05:06:21.891Z,17.29
2023-02-27T05:10:21.799Z,17.38
2023-02-27T05:14:21.813Z,17.47
2023-02-27T05:18:21.786Z,17.51
2023-02-27T05:22:21.718Z,17.50
2023-02-27T05:26:21.664Z,17.57
2023-02-27T05:30:21.656Z,17.56
2023-02-27T05:34:21.617Z,17.57
2023-02-27T05:38:21.569Z,17.51
2023-02-27T05:42:21.525Z,17.51
2023-02-27T05:46:21.485Z,17.51
2023-02-27T05:50:21.461Z,17.48
2023-02-27T05:54:21.439Z,17.46
2023-02-27T05:58:21.378Z,17.44
2023-02-27T06:02:21.409Z,17.41
2023-02-27T06:06:21.322Z,17.36
2023-02-27T06:10:21.249Z,17.31
2023-02-27T06:14:21.263Z,17.31
2023-02-27T06:18:21.182Z,17.33
2023-02-27T06:22:21.156Z,17.34
2023-02-27T06:26:21.154Z,17.38
2023-02-27T06:30:21.280Z,17.37
2023-02-27T06:34:21.359Z,17.12
2023-02-27T06:38:21.475Z,17.44
2023-02-27T06:42:21.574Z,17.95
2023-02-27T06:46:21.823Z,18.38
2023-02-27T06:50:21.762Z,18.71
2023-02-27T06:54:21.723Z,18.99
2023-02-27T06:58:21.601Z,19.20
2023-02-27T07:02:21.720Z,19.41
2023-02-27T07:06:21.509Z,19.58
2023-02-27T07:10:22.463Z,19.73
2023-02-27T07:14:21.760Z,19.86
2023-02-27T07:18:21.396Z,20.00
2023-02-27T07:22:21.362Z,20.20
2023-02-27T07:26:21.739Z,20.40
2023-02-27T07:30:21.453Z,20.44
2023-02-27T07:34:21.414Z,20.58
2023-02-27T07:38:21.393Z,20.66
2023-02-27T07:42:21.356Z,20.87
2023-02-27T07:46:21.757Z,21.01
2023-02-27T07:50:21.750Z,21.15
2023-02-27T07:54:21.223Z,21.35
2023-02-27T07:58:21.244Z,21.52
2023-02-27T08:02:21.198Z,21.66
2023-02-27T08:06:21.126Z,21.89
2023-02-27T08:10:21.097Z,21.89
2023-02-27T08:14:21.055Z,21.86
2023-02-27T08:18:21.018Z,21.86
2023-02-27T08:22:20.954Z,21.80
2023-02-27T08:26:21.143Z,21.79
2023-02-27T08:30:21.271Z,21.77
2023-02-27T08:34:21.112Z,21.76
2023-02-27T08:38:21.042Z,21.70
2023-02-27T08:42:21.019Z,21.73
2023-02-27T08:46:21.266Z,21.73
2023-02-27T08:50:21.262Z,21.74
2023-02-27T08:54:20.910Z,21.76
2023-02-27T08:58:21.268Z,21.76
2023-02-27T09:02:21.044Z,21.76
2023-02-27T09:06:21.263Z,21.74
2023-02-27T09:10:20.901Z,21.77
2023-02-27T09:14:20.844Z,21.79
2023-02-27T09:18:20.809Z,21.82
2023-02-27T09:22:20.763Z,21.82
2023-02-27T09:26:22.887Z,21.80
2023-02-27T09:30:21.750Z,21.82
2023-02-27T09:34:20.693Z,21.80
2023-02-27T09:38:20.616Z,21.83
2023-02-27T09:42:20.809Z,21.84
2023-02-27T09:46:20.809Z,21.84
2023-02-27T09:50:20.808Z,21.86
2023-02-27T09:54:20.466Z,21.90
2023-02-27T09:58:20.453Z,21.89
2023-02-27T10:02:20.848Z,21.89
2023-02-27T10:06:20.410Z,21.90
2023-02-27T10:10:20.351Z,21.90
2023-02-27T10:14:20.383Z,21.90
2023-02-27T10:18:27.615Z,21.90
2023-02-27T10:22:21.533Z,21.92
2023-02-27T10:26:20.618Z,21.93
2023-02-27T10:30:29.230Z,21.93
2023-02-27T10:34:21.819Z,21.92
2023-02-27T10:38:20.733Z,21.96
2023-02-27T10:42:20.877Z,21.96
2023-02-27T10:46:20.837Z,21.87
2023-02-27T10:50:20.800Z,21.87
2023-02-27T10:54:20.795Z,21.89
2023-02-27T10:58:20.716Z,21.82
2023-02-27T11:02:20.853Z,21.76
2023-02-27T11:06:20.726Z,21.87
2023-02-27T11:10:20.604Z,22.08
2023-02-27T11:14:20.825Z,22.10
2023-02-27T11:18:20.488Z,22.21
2023-02-27T11:22:20.451Z,22.30
2023-02-27T11:26:20.833Z,22.31
2023-02-27T11:30:20.391Z,22.34
2023-02-27T11:34:20.374Z,22.40
2023-02-27T11:38:20.969Z,22.45
2023-02-27T11:42:20.382Z,22.61
2023-02-27T11:46:46.572Z,22.38
2023-02-27T11:50:21.194Z,22.23
2023-02-27T11:54:20.246Z,22.14
2023-02-27T11:58:20.868Z,22.15
2023-02-27T12:02:20.852Z,22.23
2023-02-27T12:06:20.833Z,22.24
2023-02-27T12:10:20.636Z,22.30
2023-02-27T12:14:20.696Z,22.33
2023-02-27T12:18:20.728Z,22.37
2023-02-27T12:22:20.701Z,22.38
2023-02-27T12:26:20.876Z,22.50
2023-02-27T12:30:20.704Z,22.59
2023-02-27T12:34:20.826Z,22.69
2023-02-27T12:38:20.805Z,22.71
2023-02-27T12:42:20.857Z,22.74
2023-02-27T12:46:20.896Z,22.82
2023-02-27T12:50:21.023Z,22.92
2023-02-27T12:54:21.166Z,22.99
2023-02-27T12:58:21.377Z,23.02
2023-02-27T13:02:21.545Z,22.98
2023-02-27T13:06:21.701Z,23.01
2023-02-27T13:10:21.905Z,22.99
2023-02-27T13:14:21.865Z,22.96
2023-02-27T13:18:23.597Z,22.99
2023-02-27T13:22:21.800Z,22.99
2023-02-27T13:26:21.868Z,22.99
2023-02-27T13:30:21.826Z,22.96
2023-02-27T13:34:22.017Z,22.96
2023-02-27T13:38:21.987Z,22.96
2023-02-27T13:42:21.898Z,22.95
2023-02-27T13:46:22.008Z,22.95
2023-02-27T13:50:21.854Z,22.98
2023-02-27T13:54:21.852Z,22.98
2023-02-27T13:58:21.786Z,22.99
2023-02-27T14:02:21.788Z,23.05
2023-02-27T14:06:21.751Z,23.09
2023-02-27T14:10:21.673Z,23.13
2023-02-27T14:14:21.699Z,23.23
2023-02-27T14:18:33.756Z,23.27
2023-02-27T14:22:22.801Z,23.26
2023-02-27T14:26:21.777Z,23.30
2023-02-27T14:30:21.796Z,23.30
2023-02-27T14:34:21.902Z,23.33
2023-02-27T14:38:22.082Z,23.34
2023-02-27T14:42:22.281Z,23.36
2023-02-27T14:46:22.377Z,23.36
2023-02-27T14:50:22.529Z,23.40
2023-02-27T14:54:22.625Z,23.45
2023-02-27T14:58:22.772Z,23.43
2023-02-27T15:02:22.906Z,23.40
2023-02-27T15:06:23.052Z,23.43
2023-02-27T15:10:23.400Z,23.49
2023-02-27T15:14:23.410Z,23.45
2023-02-27T15:18:23.370Z,23.36
2023-02-27T15:22:38.038Z,23.33
2023-02-27T15:26:24.561Z,23.27
2023-02-27T15:30:23.758Z,23.22
2023-02-27T15:34:23.942Z,23.16
2023-02-27T15:38:24.137Z,23.09
2023-02-27T15:42:24.099Z,23.03
2023-02-27T15:46:24.095Z,22.96
2023-02-27T15:50:24.027Z,22.92
2023-02-27T15:54:23.991Z,22.86
2023-02-27T15:58:23.967Z,22.82
2023-02-27T16:02:23.987Z,22.79
2023-02-27T16:06:23.933Z,22.75
2023-02-27T16:10:23.945Z,22.75
2023-02-27T16:14:26.449Z,22.71
2023-02-27T16:18:23.757Z,22.71
2023-02-27T16:22:23.732Z,22.65
2023-02-27T16:26:23.685Z,22.66
2023-02-27T16:30:23.643Z,22.68
2023-02-27T16:34:26.052Z,22.65
2023-02-27T16:38:23.557Z,22.65
2023-02-27T16:42:23.540Z,22.64
2023-02-27T16:46:23.516Z,22.64
2023-02-27T16:50:23.470Z,22.61
2023-02-27T16:54:23.420Z,22.61
2023-02-27T16:58:23.376Z,22.59
2023-02-27T17:02:23.344Z,22.58
2023-02-27T17:06:23.311Z,22.59
2023-02-27T17:10:23.436Z,22.58
2023-02-27T17:14:23.237Z,22.56
2023-02-27T17:18:23.213Z,22.54
2023-02-27T17:22:23.180Z,22.54
2023-02-27T17:26:23.121Z,22.52
2023-02-27T17:30:23.086Z,22.50
2023-02-27T17:34:23.095Z,22.48
2023-02-27T17:38:23.026Z,22.45
2023-02-27T17:42:22.992Z,22.44
2023-02-27T17:46:22.967Z,22.41
2023-02-27T17:50:22.888Z,22.38
2023-02-27T17:54:22.893Z,22.37
2023-02-27T17:58:22.822Z,22.34
2023-02-27T18:02:22.826Z,22.34
2023-02-27T18:06:22.826Z,22.33
2023-02-27T18:10:22.733Z,22.33
2023-02-27T18:14:22.711Z,22.30
2023-02-27T18:18:22.680Z,22.27
2023-02-27T18:22:22.753Z,22.24
2023-02-27T18:26:30.002Z,22.24
2023-02-27T18:30:23.883Z,22.23
2023-02-27T18:34:22.837Z,22.23
2023-02-27T18:38:22.909Z,22.20
2023-02-27T18:42:23.103Z,22.17
2023-02-27T18:46:23.110Z,22.08
2023-02-27T18:50:23.022Z,21.99
2023-02-27T18:54:22.995Z,21.96
2023-02-27T18:58:22.976Z,21.92
2023-02-27T19:02:22.924Z,21.89
2023-02-27T19:06:22.877Z,21.84
2023-02-27T19:10:22.847Z,21.80
2023-02-27T19:14:22.790Z,21.77
2023-02-27T19:18:22.793Z,21.76
2023-02-27T19:22:22.747Z,21.73
2023-02-27T19:26:22.921Z,21.72
2023-02-27T19:30:23.145Z,21.70
2023-02-27T19:34:23.310Z,21.69
2023-02-27T19:38:23.283Z,21.66
2023-02-27T19:42:23.258Z,21.66
2023-02-27T19:46:23.270Z,21.64
2023-02-27T19:50:23.190Z,21.62
2023-02-27T19:54:23.154Z,21.60
2023-02-27T19:58:23.118Z,21.60
2023-02-27T20:02:23.087Z,21.56
2023-02-27T20:06:23.038Z,21.59
2023-02-27T20:10:22.989Z,21.56
2023-02-27T20:14:22.961Z,21.52
2023-02-27T20:18:22.937Z,21.50
2023-02-27T20:22:22.864Z,21.50
2023-02-27T20:26:22.821Z,21.48
2023-02-27T20:30:22.784Z,21.48
2023-02-27T20:34:22.818Z,21.46
2023-02-27T20:38:22.764Z,21.45
2023-02-27T20:42:22.671Z,21.45
2023-02-27T20:46:22.634Z,21.45
2023-02-27T20:50:22.611Z,21.42
2023-02-27T20:54:22.613Z,21.43
2023-02-27T20:58:22.559Z,21.41
2023-02-27T21:02:22.514Z,21.39
2023-02-27T21:06:22.502Z,21.42
2023-02-27T21:10:22.445Z,21.39
2023-02-27T21:14:22.451Z,21.38
2023-02-27T21:18:22.355Z,21.38
2023-02-27T21:22:22.328Z,21.33
2023-02-27T21:26:22.264Z,21.33
2023-02-27T21:30:22.228Z,21.31
2023-02-27T21:34:22.215Z,21.31
2023-02-27T21:38:22.186Z,21.31
2023-02-27T21:42:22.183Z,21.29
2023-02-27T21:46:22.191Z,21.26
2023-02-27T21:50:22.223Z,21.25
2023-02-27T21:54:22.244Z,21.28
2023-02-27T21:58:22.282Z,21.25
2023-02-27T22:02:22.362Z,21.25
2023-02-27T22:06:22.315Z,21.23
2023-02-27T22:10:22.349Z,21.22
2023-02-27T22:14:22.378Z,21.22
2023-02-27T22:18:22.420Z,21.22
2023-02-27T22:22:22.439Z,21.21
2023-02-27T22:26:22.479Z,21.18
2023-02-27T22:30:22.508Z,21.19
2023-02-27T22:34:22.536Z,21.19
2023-02-27T22:38:22.625Z,21.18
2023-02-27T22:42:22.643Z,21.18
2023-02-27T22:46:22.696Z,21.18
2023-02-27T22:50:22.751Z,21.16
2023-02-27T22:54:22.827Z,21.16
2023-02-27T22:58:22.887Z,21.16
2023-02-27T23:02:23.064Z,21.14
2023-02-27T23:06:23.210Z,21.15
2023-02-27T23:10:23.429Z,21.12
2023-02-27T23:14:23.518Z,21.14
2023-02-27T23:18:23.591Z,21.14
2023-02-27T23:22:23.821Z,21.12
2023-02-27T23:26:23.878Z,21.08
2023-02-27T23:30:24.040Z,21.12
2023-02-27T23:34:24.158Z,21.09
2023-02-27T23:38:24.325Z,21.11
2023-02-27T23:42:24.417Z,21.09
2023-02-27T23:46:24.500Z,21.08
2023-02-27T23:50:24.485Z,21.06
2023-02-27T23:54:24.500Z,21.05
2023-02-27T23:58:24.480Z,21.08
